MMVA

Carlos Rovirosa Pérez International Airport

Villahermosa, Mexico
TAF MMVA 260438Z 2606/2706 00000KT 5SM HZ SCT015 SCT200 TEMPO 2610/2614 1SM BR SCT005 BKN010 FM261800 03010KT 6SM HZ SCT020 BKN200 TEMPO 2622/2702 4SM TSRA BKN010CB FM270300 06005KT 6SM -RA BKN015 BKN080 BKN200
Issued Valid From Valid To
Apr-26 @ 04:38 UTC
(an hour ago)
Apr-26 @ 06:00 UTC
(in 2 minutes)
Apr-27 @ 06:00 UTC
(in 24 hours)
Apr-26 @ 06:00 to Apr-26 @ 18:00
TAF MMVA 260438Z 2606/2706 00000KT 5SM HZ SCT015 SCT200
Visibility Clouds Conditions
5 miles
  • Scattered at 1,500' AGL
  • Scattered at 20,000' AGL
  • Haze
Temporary Apr-26 @ 10:00 to Apr-26 @ 14:00
TEMPO 2610/2614 1SM BR SCT005 BKN010
Visibility Clouds Conditions
1 miles
  • Scattered at 500' AGL
  • Broken at 1,000' AGL
  • Mist
From Apr-26 @ 18:00 to Apr-27 @ 03:00
FM261800 03010KT 6SM HZ SCT020 BKN200
Wind Visibility Clouds Conditions
30° at 10 knots 6 miles
  • Scattered at 2,000' AGL
  • Broken at 20,000' AGL
  • Haze
Temporary Apr-26 @ 22:00 to Apr-27 @ 02:00
TEMPO 2622/2702 4SM TSRA BKN010CB
Visibility Clouds Conditions
4 miles
  • Broken at 1,000' AGL
  • Thunderstorm
  • Rain
From Apr-27 @ 03:00 to Apr-27 @ 06:00
FM270300 06005KT 6SM -RA BKN015 BKN080 BKN200
Wind Visibility Clouds Conditions
60° at 5 knots 6 miles
  • Broken at 1,500' AGL
  • Broken at 8,000' AGL
  • Broken at 20,000' AGL
  • Light Rain
TAF MMVA 260438Z 2606/2706 00000KT 5SM HZ SCT015 SCT200 TEMPO 2610/2614 1SM BR SCT005 BKN010 FM261800 03010KT 6SM HZ SCT020 BKN200 TEMPO 2622/2702 4SM TSRA BKN010CB FM270300 06005KT 6SM -RA BKN015 BKN080 BKN200
Issued Apr-26 @ 04:38 UTC
(an hour ago)
Valid From Apr-26 @ 06:00 UTC
(in 2 minutes)
Valid To Apr-27 @ 06:00 UTC
(in 24 hours)
Apr-26 @ 06:00 - Apr-26 @ 18:00
Clouds
  • Scattered at 1,500' AGL
  • Scattered at 20,000' AGL
Conditions
  • Haze
Temporary Apr-26 @ 10:00 - Apr-26 @ 14:00
Clouds
  • Scattered at 500' AGL
  • Broken at 1,000' AGL
Conditions
  • Mist
From Apr-26 @ 18:00 - Apr-27 @ 03:00
Wind Visibility
30° at 10 knots 6 miles
Clouds
  • Scattered at 2,000' AGL
  • Broken at 20,000' AGL
Conditions
  • Haze
Temporary Apr-26 @ 22:00 - Apr-27 @ 02:00
Clouds
  • Broken at 1,000' AGL
Conditions
  • Thunderstorm
  • Rain
From Apr-27 @ 03:00 - Apr-27 @ 06:00
Wind Visibility
60° at 5 knots 6 miles
Clouds
  • Broken at 1,500' AGL
  • Broken at 8,000' AGL
  • Broken at 20,000' AGL
Conditions
  • Light Rain